Terminal Aerodrome Forecast
Issued by NWS Sterling, VA

Current Version | Previous Version | Text Only | Print | Product List | Glossary Off
Versions: 1 2 3 4 5 6 7 8 9 10 11 12 13 14 15 16 17

000
FTUS41 KLWX 301740
TAFMRB
TAF
KMRB 301740Z 3018/0118 VRB04KT 5SM -SHRA OVC005
     FM010300 25009KT P6SM OVC030
     FM010800 27010KT P6SM SCT250
     FM010900 28010KT P6SM SCT040
     FM011600 27015G22KT P6SM SCT040=

USA.gov is the U.S. government's official web portal to all federal, state and local government web resources and services.